Wednesday, August 5, 2015, 6:22 AM EDT

KJYO, Leesburg / Godfrey

Location: Leesburg, VA, United States Lat: 39.083
Local Time: 6:22 AM EDT (10:22 GMT) Lon: -77.567
Time Zone: US/Eastern Elev: 390 ft

Show me the last for .
Show Decoded

2015-08-05 05:35 METAR KJYO 050935Z AUTO 00000KT 7SM CLR 19/19 A2997 RMK AO2 =
2015-08-05 05:15 METAR KJYO 050915Z AUTO 00000KT 10SM CLR 20/20 A2996 RMK AO2 =
2015-08-05 04:55 METAR KJYO 050855Z AUTO 00000KT 10SM CLR 20/20 A2996 RMK AO2 =
2015-08-05 04:35 METAR KJYO 050835Z AUTO 00000KT 10SM CLR 20/20 A2996 RMK AO2 =
2015-08-05 04:15 METAR KJYO 050815Z AUTO 00000KT 10SM SCT070 21/21 A2996 RMK AO2 =
2015-08-05 03:35 METAR KJYO 050735Z AUTO 00000KT 10SM BKN070 21/21 A2996 RMK AO2 =
2015-08-05 03:15 METAR KJYO 050715Z AUTO 00000KT 5SM BR BKN070 20/20 A2996 RMK AO2 =
2015-08-05 02:55 METAR KJYO 050655Z AUTO 00000KT 5SM BR CLR 20/20 A2996 RMK AO2 =
2015-08-05 02:35 METAR KJYO 050635Z AUTO 00000KT 10SM CLR 21/21 A2996 RMK AO2 =
2015-08-05 02:15 METAR KJYO 050615Z AUTO 23004KT 10SM CLR 22/22 A2996 RMK AO2 =
2015-08-05 01:55 METAR KJYO 050555Z AUTO 00000KT 10SM CLR 22/22 A2996 RMK AO2 =
2015-08-05 01:35 METAR KJYO 050535Z AUTO 30006KT 10SM CLR 22/22 A2995 RMK AO2 =
2015-08-05 01:15 METAR KJYO 050515Z AUTO 31007KT 10SM SCT070 22/22 A2996 RMK AO2 =
2015-08-05 00:55 METAR KJYO 050455Z AUTO 29007KT 7SM OVC070 22/22 A2996 RMK AO2 =
2015-08-05 00:35 METAR KJYO 050435Z AUTO 30005KT 10SM OVC070 22/22 A2996 RMK AO2 =
2015-08-05 00:15 METAR KJYO 050415Z AUTO 29008KT 10SM SCT070 22/22 A2996 RMK AO2 =
2015-08-04 23:55 METAR KJYO 050355Z AUTO 29008KT 7SM SCT070 22/22 A2995 RMK AO2 =
2015-08-04 23:35 METAR KJYO 050335Z AUTO 28005KT 7SM SCT070 22/22 A2995 RMK AO2 =
2015-08-04 23:15 METAR KJYO 050315Z AUTO 28005KT 5SM BR CLR 22/22 A2995 RMK AO2 =
2015-08-04 22:55 METAR KJYO 050255Z AUTO 28005KT 7SM CLR 22/22 A2994 RMK AO2 LTG DSNT E =
2015-08-04 22:35 METAR KJYO 050235Z AUTO 20003KT 7SM CLR 22/22 A2995 RMK AO2 =
2015-08-04 22:15 METAR KJYO 050215Z AUTO 22006KT 7SM CLR 23/23 A2994 RMK AO2 =
2015-08-04 21:55 METAR KJYO 050155Z AUTO 02004KT 10SM CLR 23/23 A2994 RMK AO2 =
2015-08-04 21:35 METAR KJYO 050135Z AUTO 23004KT 10SM CLR 22/22 A2994 RMK AO2 =
2015-08-04 21:15 METAR KJYO 050115Z AUTO 30007KT 10SM CLR 23/23 A2994 RMK AO2 =
2015-08-04 20:55 METAR KJYO 050055Z AUTO 32007KT 10SM CLR 23/23 A2993 RMK AO2 LTG DSNT S =
2015-08-04 20:35 METAR KJYO 050035Z AUTO 28007KT 7SM CLR 23/23 A2992 RMK AO2 LTG DSNT SW =
2015-08-04 20:15 METAR KJYO 050015Z AUTO 21010KT 10SM SCT070 SCT085 24/24 A2992 RMK AO2 LTG DSNT
                 SE AND SW =
2015-08-04 19:55 METAR KJYO 042355Z AUTO 19011KT 10SM SCT070 BKN085 25/25 A2993 RMK AO2 LTG DSNT
                 S P0001 =
2015-08-04 19:35 METAR KJYO 042335Z AUTO 36006KT 10SM SCT024 SCT044 SCT070 25/24 A2992 RMK AO2
                 P0001 =
2015-08-04 19:15 METAR KJYO 042315Z AUTO 31008KT 290V350 10SM -TSRA SCT024 SCT039 BKN110 25/25
                 A2992 RMK AO2 LTG DSNT NE AND SE =
2015-08-04 18:55 METAR KJYO 042255Z AUTO 13004KT 10SM RA BKN060 BKN070 OVC110 25/25 A2990 RMK AO2
                 LTG DSNT W THRU N P0001 =
2015-08-04 18:35 METAR KJYO 042235Z AUTO 00000KT 10SM BKN060 BKN070 BKN095 26/24 A2990 RMK AO2
                 LTG DSNT W =
2015-08-04 18:15 METAR KJYO 042215Z AUTO 12007KT 10SM SCT047 BKN050 OVC095 26/23 A2991 RMK AO2 =
2015-08-04 17:55 METAR KJYO 042155Z AUTO 19011G14KT 5SM -RA SCT043 BKN055 OVC065 25/24 A2991 RMK
                 AO2 LTG DSNT E AND S P0014 =
2015-08-04 17:35 METAR KJYO 042135Z AUTO 00000KT 10SM TS SCT012 BKN060 BKN080 28/23 A2989 RMK AO2
                 LTG DSNT SE THRU SW P0011 =
2015-08-04 16:55 METAR KJYO 042055Z AUTO 00000KT 10SM BKN060 BKN100 BKN120 31/20 A2990 RMK AO2
                 LTG DSNT S =
2015-08-04 16:35 METAR KJYO 042035Z AUTO 34004KT 10SM SCT060 SCT110 32/20 A2990 RMK AO2 =
2015-08-04 16:15 METAR KJYO 042015Z AUTO 33005KT 10SM BKN060 BKN080 BKN100 32/20 A2990 RMK AO2 =
2015-08-04 15:55 METAR KJYO 041955Z AUTO 29004G17KT 10SM BKN070 BKN080 BKN090 32/20 A2990 RMK AO2
                 =
2015-08-04 15:35 METAR KJYO 041935Z AUTO 00000KT 10SM BKN055 BKN070 BKN090 32/20 A2990 RMK AO2 =
2015-08-04 15:15 METAR KJYO 041915Z AUTO 19003G16KT 10SM BKN055 BKN065 32/20 A2991 RMK AO2 =
2015-08-04 14:55 METAR KJYO 041855Z AUTO 25005KT 10SM BKN060 BKN075 33/20 A2991 RMK AO2 =
2015-08-04 14:35 METAR KJYO 041835Z AUTO 23005G15KT 10SM SCT060 BKN075 33/20 A2992 RMK AO2 =
2015-08-04 14:15 METAR KJYO 041815Z AUTO 25004KT 10SM SCT050 BKN065 32/20 A2993 RMK AO2 =
2015-08-04 13:55 METAR KJYO 041755Z AUTO 00000KT 10SM SCT055 BKN065 31/20 A2993 RMK AO2 LTG DSNT
                 S =
2015-08-04 13:35 METAR KJYO 041735Z AUTO 23005KT 10SM SCT065 SCT075 32/20 A2994 RMK AO2 =
2015-08-04 13:15 METAR KJYO 041715Z AUTO 26010KT 220V280 10SM SCT050 32/21 A2994 RMK AO2 =
2015-08-04 12:55 METAR KJYO 041655Z AUTO 28008G16KT 10SM CLR 31/21 A2994 RMK AO2 =
2015-08-04 12:35 METAR KJYO 041635Z AUTO 28008KT 10SM SCT046 SCT065 BKN070 31/21 A2995 RMK AO2 =
2015-08-04 12:15 METAR KJYO 041615Z AUTO 30004G15KT 10SM SCT041 SCT048 BKN060 31/22 A2995 RMK AO2
                 =
2015-08-04 11:35 METAR KJYO 041535Z AUTO 26004G14KT 10SM VCTS SCT036 30/22 A2995 RMK AO2 =
2015-08-04 11:15 METAR KJYO 041515Z AUTO 24004KT 10SM SCT036 30/22 A2995 RMK AO2 =
2015-08-04 10:55 METAR KJYO 041455Z AUTO 22007KT 10SM SCT034 29/22 A2995 RMK AO2 =
2015-08-04 10:35 METAR KJYO 041435Z AUTO 26006KT 10SM CLR 29/22 A2996 RMK AO2 LTG DSNT SE =
2015-08-04 09:55 METAR KJYO 041355Z AUTO 22006KT 10SM CLR 28/22 A2996 RMK AO2 =
2015-08-04 09:35 METAR KJYO 041335Z AUTO 20009KT 10SM CLR 27/22 A2995 RMK AO2 =
2015-08-04 09:15 METAR KJYO 041315Z AUTO 20008KT 10SM CLR 25/21 A2995 RMK AO2 =
2015-08-04 08:55 METAR KJYO 041255Z AUTO 21003KT 10SM CLR 25/21 A2995 RMK AO2 =
2015-08-04 08:35 METAR KJYO 041235Z AUTO 00000KT 10SM CLR 24/21 A2995 RMK AO2 =
2015-08-04 08:15 METAR KJYO 041215Z AUTO 00000KT 10SM CLR 23/21 A2995 RMK AO2 =
2015-08-04 07:55 METAR KJYO 041155Z AUTO 00000KT 10SM CLR 22/20 A2994 RMK AO2 =
2015-08-04 07:35 METAR KJYO 041135Z AUTO 00000KT 10SM CLR 21/20 A2993 RMK AO2 =
2015-08-04 07:15 METAR KJYO 041115Z AUTO 00000KT 10SM CLR 20/20 A2993 RMK AO2 =
2015-08-04 06:55 METAR KJYO 041055Z AUTO 24004KT 10SM CLR 19/19 A2993 RMK AO2 =
2015-08-04 06:35 METAR KJYO 041035Z AUTO 00000KT 10SM CLR 19/19 A2993 RMK AO2 =

Support USWX by starting your Amazon purchase here.